sensor_id;sensor_type;location;lat;lon;timestamp;P1;durP1;ratioP1;P2;durP2;ratioP2
18090;SDS011;9172;49.948;9.208;2023-07-24T00:02:05;3.43;;;1.70;;
18090;SDS011;9172;49.948;9.208;2023-07-24T00:04:34;5.20;;;2.50;;
18090;SDS011;9172;49.948;9.208;2023-07-24T00:07:04;3.97;;;1.90;;
18090;SDS011;9172;49.948;9.208;2023-07-24T00:09:33;2.93;;;2.00;;
18090;SDS011;9172;49.948;9.208;2023-07-24T00:12:02;5.47;;;1.80;;
18090;SDS011;9172;49.948;9.208;2023-07-24T00:14:33;4.43;;;2.33;;
18090;SDS011;9172;49.948;9.208;2023-07-24T00:17:01;5.93;;;2.50;;
18090;SDS011;9172;49.948;9.208;2023-07-24T00:19:30;5.57;;;2.20;;
18090;SDS011;9172;49.948;9.208;2023-07-24T00:21:59;3.53;;;2.13;;
18090;SDS011;9172;49.948;9.208;2023-07-24T00:24:29;2.83;;;1.83;;
18090;SDS011;9172;49.948;9.208;2023-07-24T00:26:58;3.63;;;2.00;;
18090;SDS011;9172;49.948;9.208;2023-07-24T00:29:27;4.47;;;2.03;;
18090;SDS011;9172;49.948;9.208;2023-07-24T00:31:55;5.03;;;2.07;;
18090;SDS011;9172;49.948;9.208;2023-07-24T00:34:25;5.53;;;2.60;;
18090;SDS011;9172;49.948;9.208;2023-07-24T00:36:54;3.00;;;1.90;;
18090;SDS011;9172;49.948;9.208;2023-07-24T00:39:22;2.73;;;1.80;;
18090;SDS011;9172;49.948;9.208;2023-07-24T00:41:54;3.57;;;2.30;;
18090;SDS011;9172;49.948;9.208;2023-07-24T00:44:23;3.80;;;2.20;;
18090;SDS011;9172;49.948;9.208;2023-07-24T00:46:51;3.47;;;2.13;;
18090;SDS011;9172;49.948;9.208;2023-07-24T00:49:20;3.60;;;2.13;;
18090;SDS011;9172;49.948;9.208;2023-07-24T00:51:49;5.00;;;1.87;;
18090;SDS011;9172;49.948;9.208;2023-07-24T00:54:18;3.67;;;2.30;;
18090;SDS011;9172;49.948;9.208;2023-07-24T00:56:46;2.97;;;2.13;;
18090;SDS011;9172;49.948;9.208;2023-07-24T00:59:15;4.07;;;2.60;;
18090;SDS011;9172;49.948;9.208;2023-07-24T01:01:44;3.90;;;2.23;;
18090;SDS011;9172;49.948;9.208;2023-07-24T01:04:14;4.40;;;2.40;;
18090;SDS011;9172;49.948;9.208;2023-07-24T01:06:46;3.03;;;2.03;;
18090;SDS011;9172;49.948;9.208;2023-07-24T01:09:15;4.60;;;2.43;;
18090;SDS011;9172;49.948;9.208;2023-07-24T01:11:46;5.30;;;2.23;;
18090;SDS011;9172;49.948;9.208;2023-07-24T01:14:18;5.20;;;2.43;;
18090;SDS011;9172;49.948;9.208;2023-07-24T01:16:49;6.10;;;2.20;;
18090;SDS011;9172;49.948;9.208;2023-07-24T01:19:21;4.90;;;2.53;;
18090;SDS011;9172;49.948;9.208;2023-07-24T01:21:58;3.83;;;1.93;;
18090;SDS011;9172;49.948;9.208;2023-07-24T01:24:33;3.73;;;2.40;;
18090;SDS011;9172;49.948;9.208;2023-07-24T01:27:03;3.13;;;2.10;;
18090;SDS011;9172;49.948;9.208;2023-07-24T01:29:34;3.73;;;2.30;;
18090;SDS011;9172;49.948;9.208;2023-07-24T01:32:04;5.40;;;2.50;;
18090;SDS011;9172;49.948;9.208;2023-07-24T01:34:34;3.63;;;2.40;;
18090;SDS011;9172;49.948;9.208;2023-07-24T01:37:04;2.77;;;1.70;;
18090;SDS011;9172;49.948;9.208;2023-07-24T01:39:32;3.87;;;2.27;;
18090;SDS011;9172;49.948;9.208;2023-07-24T01:42:02;4.37;;;2.20;;
18090;SDS011;9172;49.948;9.208;2023-07-24T01:44:31;3.97;;;2.30;;
18090;SDS011;9172;49.948;9.208;2023-07-24T01:47:00;5.13;;;2.13;;
18090;SDS011;9172;49.948;9.208;2023-07-24T01:49:29;2.80;;;1.83;;
18090;SDS011;9172;49.948;9.208;2023-07-24T01:51:58;4.20;;;2.43;;
18090;SDS011;9172;49.948;9.208;2023-07-24T01:54:27;2.97;;;1.90;;
18090;SDS011;9172;49.948;9.208;2023-07-24T01:56:56;4.10;;;2.43;;
18090;SDS011;9172;49.948;9.208;2023-07-24T01:59:26;3.43;;;2.23;;
18090;SDS011;9172;49.948;9.208;2023-07-24T02:01:56;5.63;;;2.47;;
18090;SDS011;9172;49.948;9.208;2023-07-24T02:04:24;5.37;;;2.60;;
18090;SDS011;9172;49.948;9.208;2023-07-24T02:06:53;4.93;;;2.67;;
18090;SDS011;9172;49.948;9.208;2023-07-24T02:09:21;5.67;;;2.73;;
18090;SDS011;9172;49.948;9.208;2023-07-24T02:11:51;4.70;;;2.63;;
18090;SDS011;9172;49.948;9.208;2023-07-24T02:14:19;4.40;;;2.53;;
18090;SDS011;9172;49.948;9.208;2023-07-24T02:16:50;4.23;;;2.30;;
18090;SDS011;9172;49.948;9.208;2023-07-24T02:19:19;4.10;;;2.60;;
18090;SDS011;9172;49.948;9.208;2023-07-24T02:21:48;4.87;;;2.80;;
18090;SDS011;9172;49.948;9.208;2023-07-24T02:24:17;6.20;;;2.53;;
18090;SDS011;9172;49.948;9.208;2023-07-24T02:26:47;5.20;;;3.00;;
18090;SDS011;9172;49.948;9.208;2023-07-24T02:29:15;4.67;;;2.57;;
18090;SDS011;9172;49.948;9.208;2023-07-24T02:31:45;8.87;;;2.80;;
18090;SDS011;9172;49.948;9.208;2023-07-24T02:34:13;4.53;;;2.90;;
18090;SDS011;9172;49.948;9.208;2023-07-24T02:36:42;4.40;;;3.17;;
18090;SDS011;9172;49.948;9.208;2023-07-24T02:39:11;4.33;;;2.97;;
18090;SDS011;9172;49.948;9.208;2023-07-24T02:41:40;6.43;;;3.17;;
18090;SDS011;9172;49.948;9.208;2023-07-24T02:44:09;5.07;;;2.90;;
18090;SDS011;9172;49.948;9.208;2023-07-24T02:46:38;6.03;;;2.90;;
18090;SDS011;9172;49.948;9.208;2023-07-24T02:49:07;3.67;;;2.40;;
18090;SDS011;9172;49.948;9.208;2023-07-24T02:51:35;5.07;;;2.90;;
18090;SDS011;9172;49.948;9.208;2023-07-24T02:54:05;5.80;;;2.80;;
18090;SDS011;9172;49.948;9.208;2023-07-24T02:56:35;3.83;;;2.43;;
18090;SDS011;9172;49.948;9.208;2023-07-24T02:59:05;5.33;;;3.13;;
18090;SDS011;9172;49.948;9.208;2023-07-24T03:01:34;5.07;;;2.77;;
18090;SDS011;9172;49.948;9.208;2023-07-24T03:04:12;4.90;;;2.57;;
18090;SDS011;9172;49.948;9.208;2023-07-24T03:09:16;6.30;;;3.23;;
18090;SDS011;9172;49.948;9.208;2023-07-24T03:14:22;8.03;;;3.20;;
18090;SDS011;9172;49.948;9.208;2023-07-24T03:16:52;4.67;;;2.73;;
18090;SDS011;9172;49.948;9.208;2023-07-24T03:19:20;5.20;;;2.73;;
18090;SDS011;9172;49.948;9.208;2023-07-24T03:21:50;4.67;;;3.00;;
18090;SDS011;9172;49.948;9.208;2023-07-24T03:24:19;4.17;;;2.47;;
18090;SDS011;9172;49.948;9.208;2023-07-24T03:26:48;6.07;;;3.53;;
18090;SDS011;9172;49.948;9.208;2023-07-24T03:29:17;5.10;;;3.00;;
18090;SDS011;9172;49.948;9.208;2023-07-24T03:31:46;5.80;;;3.10;;
18090;SDS011;9172;49.948;9.208;2023-07-24T03:34:16;6.03;;;3.37;;
18090;SDS011;9172;49.948;9.208;2023-07-24T03:36:44;4.73;;;2.97;;
18090;SDS011;9172;49.948;9.208;2023-07-24T03:39:14;4.33;;;2.67;;
18090;SDS011;9172;49.948;9.208;2023-07-24T03:41:43;4.37;;;2.73;;
18090;SDS011;9172;49.948;9.208;2023-07-24T03:44:20;5.77;;;3.30;;
18090;SDS011;9172;49.948;9.208;2023-07-24T03:46:50;5.87;;;3.03;;
18090;SDS011;9172;49.948;9.208;2023-07-24T03:49:18;6.77;;;3.70;;
18090;SDS011;9172;49.948;9.208;2023-07-24T03:51:48;6.60;;;3.03;;
18090;SDS011;9172;49.948;9.208;2023-07-24T03:54:18;7.57;;;3.43;;
18090;SDS011;9172;49.948;9.208;2023-07-24T03:56:48;6.30;;;3.67;;
18090;SDS011;9172;49.948;9.208;2023-07-24T03:59:17;6.50;;;3.10;;
18090;SDS011;9172;49.948;9.208;2023-07-24T04:01:46;7.33;;;3.50;;
18090;SDS011;9172;49.948;9.208;2023-07-24T04:04:16;6.50;;;2.93;;
18090;SDS011;9172;49.948;9.208;2023-07-24T04:06:45;6.40;;;3.63;;
18090;SDS011;9172;49.948;9.208;2023-07-24T04:09:14;4.43;;;2.70;;
18090;SDS011;9172;49.948;9.208;2023-07-24T04:11:43;5.97;;;3.43;;
18090;SDS011;9172;49.948;9.208;2023-07-24T04:14:11;7.07;;;3.17;;
18090;SDS011;9172;49.948;9.208;2023-07-24T04:19:17;5.63;;;3.60;;
18090;SDS011;9172;49.948;9.208;2023-07-24T04:21:46;6.20;;;3.30;;
18090;SDS011;9172;49.948;9.208;2023-07-24T04:24:15;5.17;;;3.27;;
18090;SDS011;9172;49.948;9.208;2023-07-24T04:26:44;4.80;;;3.17;;
18090;SDS011;9172;49.948;9.208;2023-07-24T04:29:15;6.13;;;3.30;;
18090;SDS011;9172;49.948;9.208;2023-07-24T04:31:44;5.47;;;3.20;;
18090;SDS011;9172;49.948;9.208;2023-07-24T04:34:13;5.17;;;3.17;;
18090;SDS011;9172;49.948;9.208;2023-07-24T04:36:41;7.60;;;3.57;;
18090;SDS011;9172;49.948;9.208;2023-07-24T04:39:10;6.63;;;3.07;;
18090;SDS011;9172;49.948;9.208;2023-07-24T04:41:38;6.70;;;3.40;;
18090;SDS011;9172;49.948;9.208;2023-07-24T04:44:07;5.13;;;3.37;;
18090;SDS011;9172;49.948;9.208;2023-07-24T04:46:37;8.53;;;3.83;;
18090;SDS011;9172;49.948;9.208;2023-07-24T04:49:06;6.60;;;3.40;;
18090;SDS011;9172;49.948;9.208;2023-07-24T04:51:35;5.30;;;3.17;;
18090;SDS011;9172;49.948;9.208;2023-07-24T04:54:04;4.90;;;3.27;;
18090;SDS011;9172;49.948;9.208;2023-07-24T04:56:33;5.37;;;3.30;;
18090;SDS011;9172;49.948;9.208;2023-07-24T04:59:03;10.90;;;3.83;;
18090;SDS011;9172;49.948;9.208;2023-07-24T05:01:32;5.20;;;2.97;;
18090;SDS011;9172;49.948;9.208;2023-07-24T05:04:01;6.30;;;3.30;;
18090;SDS011;9172;49.948;9.208;2023-07-24T05:06:31;5.13;;;3.13;;
18090;SDS011;9172;49.948;9.208;2023-07-24T05:09:01;5.53;;;3.23;;
18090;SDS011;9172;49.948;9.208;2023-07-24T05:11:30;6.07;;;3.47;;
18090;SDS011;9172;49.948;9.208;2023-07-24T05:13:59;8.90;;;3.40;;
18090;SDS011;9172;49.948;9.208;2023-07-24T05:16:28;8.90;;;4.03;;
18090;SDS011;9172;49.948;9.208;2023-07-24T05:18:57;6.60;;;3.43;;
18090;SDS011;9172;49.948;9.208;2023-07-24T05:21:26;6.87;;;3.47;;
18090;SDS011;9172;49.948;9.208;2023-07-24T05:23:55;6.60;;;3.80;;
18090;SDS011;9172;49.948;9.208;2023-07-24T05:26:23;6.87;;;3.33;;
18090;SDS011;9172;49.948;9.208;2023-07-24T05:28:54;5.67;;;3.13;;
18090;SDS011;9172;49.948;9.208;2023-07-24T05:31:22;6.77;;;2.90;;
18090;SDS011;9172;49.948;9.208;2023-07-24T05:33:51;5.20;;;3.37;;
18090;SDS011;9172;49.948;9.208;2023-07-24T05:36:21;9.67;;;4.00;;
18090;SDS011;9172;49.948;9.208;2023-07-24T05:38:49;5.50;;;3.50;;
18090;SDS011;9172;49.948;9.208;2023-07-24T05:41:19;5.67;;;3.30;;
18090;SDS011;9172;49.948;9.208;2023-07-24T05:43:48;6.63;;;3.47;;
18090;SDS011;9172;49.948;9.208;2023-07-24T05:46:17;7.27;;;3.47;;
18090;SDS011;9172;49.948;9.208;2023-07-24T05:48:46;5.73;;;3.33;;
18090;SDS011;9172;49.948;9.208;2023-07-24T05:51:15;6.23;;;3.17;;
18090;SDS011;9172;49.948;9.208;2023-07-24T05:53:43;6.47;;;3.57;;
18090;SDS011;9172;49.948;9.208;2023-07-24T05:56:13;5.67;;;3.33;;
18090;SDS011;9172;49.948;9.208;2023-07-24T05:58:41;5.47;;;3.03;;
18090;SDS011;9172;49.948;9.208;2023-07-24T06:01:12;5.73;;;3.57;;
18090;SDS011;9172;49.948;9.208;2023-07-24T06:03:41;6.40;;;3.47;;
18090;SDS011;9172;49.948;9.208;2023-07-24T06:06:09;6.57;;;3.50;;
18090;SDS011;9172;49.948;9.208;2023-07-24T06:08:39;6.40;;;3.57;;
18090;SDS011;9172;49.948;9.208;2023-07-24T06:11:08;7.13;;;3.70;;
18090;SDS011;9172;49.948;9.208;2023-07-24T06:13:38;5.60;;;3.40;;
18090;SDS011;9172;49.948;9.208;2023-07-24T06:16:07;7.23;;;3.57;;
18090;SDS011;9172;49.948;9.208;2023-07-24T06:18:37;7.23;;;3.70;;
18090;SDS011;9172;49.948;9.208;2023-07-24T06:21:06;7.27;;;4.17;;
18090;SDS011;9172;49.948;9.208;2023-07-24T06:23:37;7.77;;;3.83;;
18090;SDS011;9172;49.948;9.208;2023-07-24T06:26:06;7.07;;;4.30;;
18090;SDS011;9172;49.948;9.208;2023-07-24T06:28:35;6.07;;;3.50;;
18090;SDS011;9172;49.948;9.208;2023-07-24T06:31:06;8.00;;;4.03;;
18090;SDS011;9172;49.948;9.208;2023-07-24T06:33:35;6.43;;;3.70;;
18090;SDS011;9172;49.948;9.208;2023-07-24T06:36:04;6.57;;;3.83;;
18090;SDS011;9172;49.948;9.208;2023-07-24T06:38:36;5.80;;;3.93;;
18090;SDS011;9172;49.948;9.208;2023-07-24T06:41:05;8.13;;;3.63;;
18090;SDS011;9172;49.948;9.208;2023-07-24T06:43:35;8.67;;;4.23;;
18090;SDS011;9172;49.948;9.208;2023-07-24T06:46:05;7.20;;;4.50;;
18090;SDS011;9172;49.948;9.208;2023-07-24T06:48:33;6.47;;;3.50;;
18090;SDS011;9172;49.948;9.208;2023-07-24T06:51:02;7.03;;;3.93;;
18090;SDS011;9172;49.948;9.208;2023-07-24T06:53:30;10.33;;;4.20;;
18090;SDS011;9172;49.948;9.208;2023-07-24T06:55:59;8.13;;;4.20;;
18090;SDS011;9172;49.948;9.208;2023-07-24T06:58:28;9.87;;;4.10;;
18090;SDS011;9172;49.948;9.208;2023-07-24T07:03:44;7.83;;;4.07;;
18090;SDS011;9172;49.948;9.208;2023-07-24T07:06:13;7.67;;;3.80;;
18090;SDS011;9172;49.948;9.208;2023-07-24T07:08:42;8.50;;;4.60;;
18090;SDS011;9172;49.948;9.208;2023-07-24T07:11:12;9.23;;;4.57;;
18090;SDS011;9172;49.948;9.208;2023-07-24T07:13:41;6.83;;;4.10;;
18090;SDS011;9172;49.948;9.208;2023-07-24T07:16:10;7.97;;;4.07;;
18090;SDS011;9172;49.948;9.208;2023-07-24T07:18:39;9.70;;;4.50;;
18090;SDS011;9172;49.948;9.208;2023-07-24T07:21:08;6.77;;;3.80;;
18090;SDS011;9172;49.948;9.208;2023-07-24T07:23:37;9.63;;;3.97;;
18090;SDS011;9172;49.948;9.208;2023-07-24T07:26:06;7.60;;;4.10;;
18090;SDS011;9172;49.948;9.208;2023-07-24T07:28:34;7.47;;;4.53;;
18090;SDS011;9172;49.948;9.208;2023-07-24T07:31:04;8.73;;;4.57;;
18090;SDS011;9172;49.948;9.208;2023-07-24T07:33:33;8.27;;;4.67;;
18090;SDS011;9172;49.948;9.208;2023-07-24T07:36:03;8.15;;;4.75;;
18090;SDS011;9172;49.948;9.208;2023-07-24T07:38:32;12.57;;;4.70;;
18090;SDS011;9172;49.948;9.208;2023-07-24T07:41:04;10.87;;;4.40;;
18090;SDS011;9172;49.948;9.208;2023-07-24T07:43:32;7.25;;;4.37;;
18090;SDS011;9172;49.948;9.208;2023-07-24T07:46:02;7.73;;;4.33;;
18090;SDS011;9172;49.948;9.208;2023-07-24T07:48:31;6.67;;;4.27;;
18090;SDS011;9172;49.948;9.208;2023-07-24T07:51:00;7.95;;;4.28;;
18090;SDS011;9172;49.948;9.208;2023-07-24T07:53:30;7.42;;;4.28;;
18090;SDS011;9172;49.948;9.208;2023-07-24T07:55:59;11.10;;;5.22;;
18090;SDS011;9172;49.948;9.208;2023-07-24T07:58:29;8.33;;;4.22;;
18090;SDS011;9172;49.948;9.208;2023-07-24T08:00:58;9.35;;;4.30;;
18090;SDS011;9172;49.948;9.208;2023-07-24T08:03:29;10.00;;;5.20;;
18090;SDS011;9172;49.948;9.208;2023-07-24T08:05:57;9.65;;;5.15;;
18090;SDS011;9172;49.948;9.208;2023-07-24T08:08:26;12.10;;;5.15;;
18090;SDS011;9172;49.948;9.208;2023-07-24T08:10:55;9.70;;;4.35;;
18090;SDS011;9172;49.948;9.208;2023-07-24T08:13:24;8.93;;;4.67;;
18090;SDS011;9172;49.948;9.208;2023-07-24T08:15:52;8.13;;;4.80;;
18090;SDS011;9172;49.948;9.208;2023-07-24T08:18:21;9.58;;;4.80;;
18090;SDS011;9172;49.948;9.208;2023-07-24T08:20:50;7.17;;;3.93;;
18090;SDS011;9172;49.948;9.208;2023-07-24T08:23:19;7.63;;;4.50;;
18090;SDS011;9172;49.948;9.208;2023-07-24T08:25:52;7.85;;;4.67;;
18090;SDS011;9172;49.948;9.208;2023-07-24T08:28:21;7.50;;;4.28;;
18090;SDS011;9172;49.948;9.208;2023-07-24T08:30:56;8.63;;;4.90;;
18090;SDS011;9172;49.948;9.208;2023-07-24T08:33:27;8.30;;;4.12;;
18090;SDS011;9172;49.948;9.208;2023-07-24T08:35:59;7.10;;;4.33;;
18090;SDS011;9172;49.948;9.208;2023-07-24T08:38:28;9.00;;;4.60;;
18090;SDS011;9172;49.948;9.208;2023-07-24T08:41:01;8.33;;;4.72;;
18090;SDS011;9172;49.948;9.208;2023-07-24T08:43:32;7.33;;;4.40;;
18090;SDS011;9172;49.948;9.208;2023-07-24T08:46:02;7.12;;;4.12;;
18090;SDS011;9172;49.948;9.208;2023-07-24T08:48:33;8.00;;;4.55;;
18090;SDS011;9172;49.948;9.208;2023-07-24T08:51:03;7.75;;;4.33;;
18090;SDS011;9172;49.948;9.208;2023-07-24T08:53:32;11.10;;;4.20;;
18090;SDS011;9172;49.948;9.208;2023-07-24T08:56:02;8.78;;;3.83;;
18090;SDS011;9172;49.948;9.208;2023-07-24T08:58:32;8.10;;;4.62;;
18090;SDS011;9172;49.948;9.208;2023-07-24T09:01:01;7.22;;;4.33;;
18090;SDS011;9172;49.948;9.208;2023-07-24T09:03:31;9.05;;;4.67;;
18090;SDS011;9172;49.948;9.208;2023-07-24T09:06:01;6.87;;;4.30;;
18090;SDS011;9172;49.948;9.208;2023-07-24T09:08:31;7.17;;;4.42;;
18090;SDS011;9172;49.948;9.208;2023-07-24T09:11:00;9.20;;;4.20;;
18090;SDS011;9172;49.948;9.208;2023-07-24T09:13:30;5.70;;;3.80;;
18090;SDS011;9172;49.948;9.208;2023-07-24T09:16:01;9.05;;;4.08;;
18090;SDS011;9172;49.948;9.208;2023-07-24T09:18:38;7.12;;;3.60;;
18090;SDS011;9172;49.948;9.208;2023-07-24T09:21:08;7.45;;;4.22;;
18090;SDS011;9172;49.948;9.208;2023-07-24T09:23:38;8.23;;;4.47;;
18090;SDS011;9172;49.948;9.208;2023-07-24T09:26:09;7.62;;;4.12;;
18090;SDS011;9172;49.948;9.208;2023-07-24T09:28:39;7.45;;;4.22;;
18090;SDS011;9172;49.948;9.208;2023-07-24T09:31:07;8.08;;;4.25;;
18090;SDS011;9172;49.948;9.208;2023-07-24T09:33:38;7.35;;;4.22;;
18090;SDS011;9172;49.948;9.208;2023-07-24T09:36:09;7.55;;;3.80;;
18090;SDS011;9172;49.948;9.208;2023-07-24T09:38:40;7.12;;;4.17;;
18090;SDS011;9172;49.948;9.208;2023-07-24T09:41:09;6.20;;;4.00;;
18090;SDS011;9172;49.948;9.208;2023-07-24T09:43:38;8.00;;;4.10;;
18090;SDS011;9172;49.948;9.208;2023-07-24T09:46:09;5.90;;;3.55;;
18090;SDS011;9172;49.948;9.208;2023-07-24T09:48:40;8.30;;;4.03;;
18090;SDS011;9172;49.948;9.208;2023-07-24T09:51:08;7.75;;;3.77;;
18090;SDS011;9172;49.948;9.208;2023-07-24T09:53:42;8.88;;;3.75;;
18090;SDS011;9172;49.948;9.208;2023-07-24T09:56:19;7.40;;;3.58;;
18090;SDS011;9172;49.948;9.208;2023-07-24T09:58:49;6.40;;;3.30;;
18090;SDS011;9172;49.948;9.208;2023-07-24T10:01:22;9.23;;;4.05;;
18090;SDS011;9172;49.948;9.208;2023-07-24T10:03:52;6.95;;;3.70;;
18090;SDS011;9172;49.948;9.208;2023-07-24T10:06:22;5.83;;;3.80;;
18090;SDS011;9172;49.948;9.208;2023-07-24T10:08:51;5.35;;;3.77;;
18090;SDS011;9172;49.948;9.208;2023-07-24T10:11:23;9.20;;;3.72;;
18090;SDS011;9172;49.948;9.208;2023-07-24T10:13:54;7.12;;;3.70;;
18090;SDS011;9172;49.948;9.208;2023-07-24T10:16:22;6.28;;;4.25;;
18090;SDS011;9172;49.948;9.208;2023-07-24T10:18:52;6.03;;;4.00;;
18090;SDS011;9172;49.948;9.208;2023-07-24T10:21:26;8.63;;;3.80;;
18090;SDS011;9172;49.948;9.208;2023-07-24T10:23:55;12.37;;;4.08;;
18090;SDS011;9172;49.948;9.208;2023-07-24T10:26:26;5.97;;;3.55;;
18090;SDS011;9172;49.948;9.208;2023-07-24T10:28:56;6.95;;;3.58;;
18090;SDS011;9172;49.948;9.208;2023-07-24T10:31:25;5.55;;;3.55;;
18090;SDS011;9172;49.948;9.208;2023-07-24T10:33:54;5.25;;;3.25;;
18090;SDS011;9172;49.948;9.208;2023-07-24T10:36:25;6.72;;;3.33;;
18090;SDS011;9172;49.948;9.208;2023-07-24T10:38:58;8.23;;;3.77;;
18090;SDS011;9172;49.948;9.208;2023-07-24T10:41:34;6.22;;;3.72;;
18090;SDS011;9172;49.948;9.208;2023-07-24T10:44:05;11.38;;;3.65;;
18090;SDS011;9172;49.948;9.208;2023-07-24T10:46:37;20.68;;;4.20;;
18090;SDS011;9172;49.948;9.208;2023-07-24T10:49:08;6.33;;;3.37;;
18090;SDS011;9172;49.948;9.208;2023-07-24T10:51:39;5.70;;;3.58;;
18090;SDS011;9172;49.948;9.208;2023-07-24T10:54:08;6.80;;;3.27;;
18090;SDS011;9172;49.948;9.208;2023-07-24T10:56:36;6.92;;;3.75;;
18090;SDS011;9172;49.948;9.208;2023-07-24T10:59:06;6.60;;;3.17;;
18090;SDS011;9172;49.948;9.208;2023-07-24T11:01:34;6.75;;;3.92;;
18090;SDS011;9172;49.948;9.208;2023-07-24T11:04:04;6.30;;;3.87;;
18090;SDS011;9172;49.948;9.208;2023-07-24T11:06:33;5.60;;;3.47;;
18090;SDS011;9172;49.948;9.208;2023-07-24T11:09:03;4.47;;;2.90;;
18090;SDS011;9172;49.948;9.208;2023-07-24T11:11:32;5.00;;;3.12;;
18090;SDS011;9172;49.948;9.208;2023-07-24T11:14:02;6.08;;;3.27;;
18090;SDS011;9172;49.948;9.208;2023-07-24T11:16:31;5.80;;;3.45;;
18090;SDS011;9172;49.948;9.208;2023-07-24T11:19:00;5.78;;;3.17;;
18090;SDS011;9172;49.948;9.208;2023-07-24T11:21:28;7.00;;;3.30;;
18090;SDS011;9172;49.948;9.208;2023-07-24T11:23:58;7.10;;;3.33;;
18090;SDS011;9172;49.948;9.208;2023-07-24T11:26:28;10.30;;;3.95;;
18090;SDS011;9172;49.948;9.208;2023-07-24T11:28:57;8.25;;;3.55;;
18090;SDS011;9172;49.948;9.208;2023-07-24T11:31:26;5.80;;;3.62;;
18090;SDS011;9172;49.948;9.208;2023-07-24T11:33:56;5.55;;;3.58;;
18090;SDS011;9172;49.948;9.208;2023-07-24T11:36:26;5.28;;;3.33;;
18090;SDS011;9172;49.948;9.208;2023-07-24T11:38:55;6.22;;;3.12;;
18090;SDS011;9172;49.948;9.208;2023-07-24T11:41:25;7.42;;;3.52;;
18090;SDS011;9172;49.948;9.208;2023-07-24T11:43:55;8.73;;;3.62;;
18090;SDS011;9172;49.948;9.208;2023-07-24T11:46:24;9.78;;;3.70;;
18090;SDS011;9172;49.948;9.208;2023-07-24T11:48:54;7.10;;;3.62;;
18090;SDS011;9172;49.948;9.208;2023-07-24T11:51:23;6.00;;;3.67;;
18090;SDS011;9172;49.948;9.208;2023-07-24T11:54:03;6.28;;;3.72;;
18090;SDS011;9172;49.948;9.208;2023-07-24T11:56:33;8.70;;;4.45;;
18090;SDS011;9172;49.948;9.208;2023-07-24T11:59:12;5.03;;;3.30;;
18090;SDS011;9172;49.948;9.208;2023-07-24T12:01:42;7.35;;;4.00;;
18090;SDS011;9172;49.948;9.208;2023-07-24T12:04:14;7.70;;;4.25;;
18090;SDS011;9172;49.948;9.208;2023-07-24T12:06:43;6.42;;;3.80;;
18090;SDS011;9172;49.948;9.208;2023-07-24T12:09:13;5.92;;;3.72;;
18090;SDS011;9172;49.948;9.208;2023-07-24T12:11:42;7.35;;;3.60;;
18090;SDS011;9172;49.948;9.208;2023-07-24T12:14:13;7.08;;;3.85;;
18090;SDS011;9172;49.948;9.208;2023-07-24T12:16:43;6.67;;;3.47;;
18090;SDS011;9172;49.948;9.208;2023-07-24T12:19:14;10.50;;;4.05;;
18090;SDS011;9172;49.948;9.208;2023-07-24T12:21:42;9.43;;;4.22;;
18090;SDS011;9172;49.948;9.208;2023-07-24T12:24:11;5.90;;;3.67;;
18090;SDS011;9172;49.948;9.208;2023-07-24T12:26:40;8.85;;;3.98;;
18090;SDS011;9172;49.948;9.208;2023-07-24T12:29:08;6.78;;;3.77;;
18090;SDS011;9172;49.948;9.208;2023-07-24T12:31:38;6.05;;;3.47;;
18090;SDS011;9172;49.948;9.208;2023-07-24T12:34:08;6.80;;;3.63;;
18090;SDS011;9172;49.948;9.208;2023-07-24T12:36:36;7.70;;;3.42;;
18090;SDS011;9172;49.948;9.208;2023-07-24T12:39:06;8.60;;;3.90;;
18090;SDS011;9172;49.948;9.208;2023-07-24T12:41:35;5.53;;;3.47;;
18090;SDS011;9172;49.948;9.208;2023-07-24T12:44:04;7.95;;;3.77;;
18090;SDS011;9172;49.948;9.208;2023-07-24T12:46:32;5.55;;;3.58;;
18090;SDS011;9172;49.948;9.208;2023-07-24T12:49:03;5.28;;;3.70;;
18090;SDS011;9172;49.948;9.208;2023-07-24T12:51:31;7.92;;;3.12;;
18090;SDS011;9172;49.948;9.208;2023-07-24T12:54:00;6.62;;;3.95;;
18090;SDS011;9172;49.948;9.208;2023-07-24T12:56:28;7.00;;;4.10;;
18090;SDS011;9172;49.948;9.208;2023-07-24T12:58:57;7.37;;;3.98;;
18090;SDS011;9172;49.948;9.208;2023-07-24T13:01:26;5.20;;;3.87;;
18090;SDS011;9172;49.948;9.208;2023-07-24T13:03:55;8.80;;;4.58;;
18090;SDS011;9172;49.948;9.208;2023-07-24T13:06:23;4.97;;;3.42;;
18090;SDS011;9172;49.948;9.208;2023-07-24T13:08:53;5.72;;;3.70;;
18090;SDS011;9172;49.948;9.208;2023-07-24T13:11:22;8.05;;;3.90;;
18090;SDS011;9172;49.948;9.208;2023-07-24T13:13:51;6.00;;;3.37;;
18090;SDS011;9172;49.948;9.208;2023-07-24T13:16:20;5.65;;;3.35;;
18090;SDS011;9172;49.948;9.208;2023-07-24T13:18:51;6.47;;;3.33;;
18090;SDS011;9172;49.948;9.208;2023-07-24T13:21:20;5.45;;;3.25;;
18090;SDS011;9172;49.948;9.208;2023-07-24T13:23:49;8.25;;;3.25;;
18090;SDS011;9172;49.948;9.208;2023-07-24T13:26:18;7.40;;;3.87;;
18090;SDS011;9172;49.948;9.208;2023-07-24T13:28:47;4.87;;;3.30;;
18090;SDS011;9172;49.948;9.208;2023-07-24T13:31:17;5.70;;;3.10;;
18090;SDS011;9172;49.948;9.208;2023-07-24T13:33:46;4.92;;;3.15;;
18090;SDS011;9172;49.948;9.208;2023-07-24T13:36:15;6.78;;;3.40;;
18090;SDS011;9172;49.948;9.208;2023-07-24T13:38:43;6.67;;;3.55;;
18090;SDS011;9172;49.948;9.208;2023-07-24T13:41:14;7.42;;;3.70;;
18090;SDS011;9172;49.948;9.208;2023-07-24T13:43:43;6.28;;;3.85;;
18090;SDS011;9172;49.948;9.208;2023-07-24T13:46:11;9.83;;;4.15;;
18090;SDS011;9172;49.948;9.208;2023-07-24T13:48:40;6.37;;;4.05;;
18090;SDS011;9172;49.948;9.208;2023-07-24T13:51:08;6.83;;;4.15;;
18090;SDS011;9172;49.948;9.208;2023-07-24T13:53:37;6.55;;;3.52;;
18090;SDS011;9172;49.948;9.208;2023-07-24T13:56:06;7.50;;;4.08;;
18090;SDS011;9172;49.948;9.208;2023-07-24T13:58:36;6.55;;;4.17;;
18090;SDS011;9172;49.948;9.208;2023-07-24T14:01:06;9.15;;;4.70;;
18090;SDS011;9172;49.948;9.208;2023-07-24T14:03:36;7.17;;;4.40;;
18090;SDS011;9172;49.948;9.208;2023-07-24T14:06:04;12.33;;;4.62;;
18090;SDS011;9172;49.948;9.208;2023-07-24T14:08:33;6.20;;;3.87;;
18090;SDS011;9172;49.948;9.208;2023-07-24T14:11:02;11.05;;;3.98;;
18090;SDS011;9172;49.948;9.208;2023-07-24T14:13:31;7.60;;;4.17;;
18090;SDS011;9172;49.948;9.208;2023-07-24T14:16:00;8.78;;;4.20;;
18090;SDS011;9172;49.948;9.208;2023-07-24T14:18:28;8.90;;;4.00;;
18090;SDS011;9172;49.948;9.208;2023-07-24T14:20:57;11.48;;;3.90;;
18090;SDS011;9172;49.948;9.208;2023-07-24T14:23:25;6.80;;;4.00;;
18090;SDS011;9172;49.948;9.208;2023-07-24T14:25:54;8.35;;;4.65;;
18090;SDS011;9172;49.948;9.208;2023-07-24T14:28:23;7.00;;;3.87;;
18090;SDS011;9172;49.948;9.208;2023-07-24T14:30:52;7.75;;;4.20;;
18090;SDS011;9172;49.948;9.208;2023-07-24T14:33:20;6.65;;;4.10;;
18090;SDS011;9172;49.948;9.208;2023-07-24T14:35:50;7.17;;;3.72;;
18090;SDS011;9172;49.948;9.208;2023-07-24T14:38:20;6.22;;;4.00;;
18090;SDS011;9172;49.948;9.208;2023-07-24T14:40:49;6.37;;;3.72;;
18090;SDS011;9172;49.948;9.208;2023-07-24T14:43:19;6.53;;;3.98;;
18090;SDS011;9172;49.948;9.208;2023-07-24T14:45:48;7.62;;;4.20;;
18090;SDS011;9172;49.948;9.208;2023-07-24T14:48:17;5.78;;;3.80;;
18090;SDS011;9172;49.948;9.208;2023-07-24T14:50:45;7.75;;;4.17;;
18090;SDS011;9172;49.948;9.208;2023-07-24T14:53:14;6.92;;;3.98;;
18090;SDS011;9172;49.948;9.208;2023-07-24T14:55:43;9.43;;;4.30;;
18090;SDS011;9172;49.948;9.208;2023-07-24T14:58:12;6.85;;;4.05;;
18090;SDS011;9172;49.948;9.208;2023-07-24T15:00:41;8.15;;;4.50;;
18090;SDS011;9172;49.948;9.208;2023-07-24T15:03:09;7.00;;;3.90;;
18090;SDS011;9172;49.948;9.208;2023-07-24T15:05:39;7.05;;;4.62;;
18090;SDS011;9172;49.948;9.208;2023-07-24T15:08:07;7.62;;;4.42;;
18090;SDS011;9172;49.948;9.208;2023-07-24T15:10:36;7.17;;;4.42;;
18090;SDS011;9172;49.948;9.208;2023-07-24T15:13:05;7.80;;;4.20;;
18090;SDS011;9172;49.948;9.208;2023-07-24T15:15:36;6.55;;;4.03;;
18090;SDS011;9172;49.948;9.208;2023-07-24T15:18:05;6.58;;;3.70;;
18090;SDS011;9172;49.948;9.208;2023-07-24T15:20:34;6.95;;;3.55;;
18090;SDS011;9172;49.948;9.208;2023-07-24T15:23:04;4.95;;;3.40;;
18090;SDS011;9172;49.948;9.208;2023-07-24T15:25:32;6.35;;;3.35;;